Wellman, Texas
Current Conditions -  °F | °C
As of 2:15 AM on Sunday 26 Oct 2014 (Local Time) from KGNC Reporting Station
Clear Clear  
Wind Chill: 60°   Ceiling: Unl
Heat Index: 60°   Visibility: 10mi
Dew Point: 53°   Wind: 7mph
Humidity: 78%   Direction: 200°SSW
Pressure: 30.09"   Gusts: NA
Location:  33.05°N, 102.43°W
Report Text: KGNC 260715Z AUTO 20006KT 10SM CLR 16/12 A3009 RMK AO2 T01560118
Loading
Personal Weather Stations






























Interactive Weather Map
Tropical Storm Tracking
New forecast layout! Learn more

10-Day Weather Forecast

Advertisements
Track Severe Weather on mobile